Time;durP1;ratioP1;P1;durP2;ratioP2;P2;SDS_P1;SDS_P2;PMS_P1;PMS_P2;Temp;Humidity;BMP_temperature;BMP_pressure;BME280_temperature;BME280_humidity;BME280_pressure;Samples;Min_cycle;Max_cycle;Signal;HPM_P1;HPM_P2
2021/01/14 00:01:03;;;;;;;1.37;0.70;;;2.80;51.40;;;;;;5076453;28;20185;-72
2021/01/14 00:03:29;;;;;;;1.00;0.53;;;2.90;51.80;;;;;;5094532;28;20174;-72
2021/01/14 00:05:55;;;;;;;1.20;0.70;;;2.80;52.00;;;;;;5094243;28;20201;-72
2021/01/14 00:08:20;;;;;;;1.50;0.70;;;2.90;52.20;;;;;;5094478;28;20280;-71
2021/01/14 00:10:46;;;;;;;1.37;0.67;;;2.90;52.40;;;;;;5093991;28;20691;-71
2021/01/14 00:13:13;;;;;;;1.00;0.50;;;2.90;52.50;;;;;;5076249;28;20174;-72
2021/01/14 00:15:38;;;;;;;1.00;0.50;;;2.90;51.70;;;;;;5075995;28;20231;-72
2021/01/14 00:18:04;;;;;;;1.50;0.50;;;2.90;51.90;;;;;;5094148;28;20200;-72
2021/01/14 00:20:30;;;;;;;0.97;0.50;;;2.80;51.20;;;;;;5094104;28;20555;-73
2021/01/14 00:22:55;;;;;;;1.10;0.60;;;2.80;51.20;;;;;;5094229;28;20472;-73
2021/01/14 00:25:21;;;;;;;1.03;0.60;;;2.80;51.40;;;;;;5075704;28;20238;-72
2021/01/14 00:27:47;;;;;;;0.90;0.47;;;2.60;51.50;;;;;;5094125;28;20204;-72
2021/01/14 00:30:15;;;;;;;1.63;0.60;;;2.50;50.80;;;;;;5075656;28;20296;-72
2021/01/14 00:32:42;;;;;;;1.20;0.60;;;2.40;50.60;;;;;;5093640;28;20190;-72
2021/01/14 00:35:08;;;;;;;1.27;0.80;;;2.30;50.70;;;;;;5094067;28;20573;-73
2021/01/14 00:40:27;;;;;;;1.10;0.63;;;2.10;50.10;;;;;;5094004;28;20192;-72
2021/01/14 00:42:56;;;;;;;2.03;0.80;;;2.10;49.50;;;;;;5093900;28;20176;-73
2021/01/14 00:45:21;;;;;;;6.43;0.90;;;2.00;48.60;;;;;;5093834;28;20215;-73
2021/01/14 00:47:47;;;;;;;1.47;0.90;;;1.90;43.10;;;;;;5093881;28;20177;-73
2021/01/14 00:50:13;;;;;;;2.60;0.80;;;1.90;44.30;;;;;;5075360;28;20253;-73
2021/01/14 00:52:40;;;;;;;1.00;0.60;;;2.00;45.00;;;;;;5093582;28;20181;-72
2021/01/14 00:55:06;;;;;;;0.93;0.50;;;2.00;45.20;;;;;;5093766;28;20193;-72
2021/01/14 00:57:37;;;;;;;1.52;0.70;;;2.00;45.70;;;;;;5093512;28;20185;-72
2021/01/14 01:00:09;;;;;;;1.45;1.02;;;2.00;45.70;;;;;;5093414;28;20650;-72
2021/01/14 01:02:34;;;;;;;1.90;0.93;;;2.00;47.30;;;;;;5093544;28;20177;-72
2021/01/14 01:05:00;;;;;;;1.40;0.70;;;1.90;47.70;;;;;;5075368;28;20224;-72
2021/01/14 01:07:25;;;;;;;1.40;0.70;;;1.90;48.50;;;;;;5093400;28;20178;-72
2021/01/14 01:09:51;;;;;;;1.57;0.97;;;1.90;48.70;;;;;;5093092;28;20222;-72
2021/01/14 01:12:16;;;;;;;1.50;0.63;;;1.90;49.00;;;;;;5093316;28;20230;-72
2021/01/14 01:14:43;;;;;;;1.57;1.00;;;2.00;49.10;;;;;;5093298;28;20195;-72
2021/01/14 01:17:08;;;;;;;1.00;0.63;;;2.00;49.30;;;;;;5075065;28;20169;-73
2021/01/14 01:19:34;;;;;;;1.23;0.83;;;2.00;49.20;;;;;;5074985;28;20214;-72
2021/01/14 01:21:59;;;;;;;1.23;0.70;;;2.00;49.40;;;;;;5093136;28;20174;-72
2021/01/14 01:24:25;;;;;;;1.33;0.90;;;2.00;49.00;;;;;;5093037;28;20587;-72
2021/01/14 01:26:52;;;;;;;1.00;0.70;;;2.10;49.10;;;;;;5093359;28;20227;-72
2021/01/14 01:29:18;;;;;;;1.00;0.60;;;2.10;48.80;;;;;;5105183;28;20169;-72
2021/01/14 01:31:43;;;;;;;1.25;0.85;;;2.00;48.90;;;;;;5109137;28;20250;-72
2021/01/14 01:34:09;;;;;;;1.73;0.80;;;2.00;49.10;;;;;;5090931;28;20189;-72
2021/01/14 01:36:35;;;;;;;1.70;1.00;;;2.00;49.20;;;;;;5090093;28;20219;-73
2021/01/14 01:39:00;;;;;;;1.30;0.83;;;2.00;49.50;;;;;;5108460;28;20372;-73
2021/01/14 01:41:26;;;;;;;1.30;0.70;;;2.00;49.10;;;;;;5108944;28;20173;-73
2021/01/14 01:43:52;;;;;;;1.30;0.70;;;2.10;48.90;;;;;;5107553;28;20189;-72
2021/01/14 01:46:31;;;;;;;1.13;0.63;;;2.10;48.80;;;;;;5107516;28;20239;-72
2021/01/14 01:48:58;;;;;;;1.60;0.90;;;2.10;48.30;;;;;;5101045;28;20191;-72
2021/01/14 01:51:45;;;;;;;1.30;0.70;;;2.10;48.30;;;;;;5095776;28;20196;-73
2021/01/14 01:54:11;;;;;;;1.30;0.68;;;2.10;48.40;;;;;;5094874;28;20190;-72
2021/01/14 01:56:37;;;;;;;0.90;0.50;;;2.10;48.40;;;;;;5093723;28;20188;-73
2021/01/14 01:59:04;;;;;;;1.80;0.67;;;2.20;48.80;;;;;;5074820;28;20284;-72
2021/01/14 02:01:30;;;;;;;1.10;0.60;;;2.20;48.30;;;;;;5074921;28;20177;-72
2021/01/14 02:03:55;;;;;;;1.00;0.50;;;2.20;48.40;;;;;;5092647;28;20203;-73
2021/01/14 02:06:21;;;;;;;2.03;0.90;;;2.30;48.70;;;;;;5092645;28;20189;-72
2021/01/14 02:08:57;;;;;;;1.10;0.60;;;2.30;48.40;;;;;;5092041;28;20169;-72
2021/01/14 02:11:39;;;;;;;1.42;0.85;;;2.30;48.50;;;;;;5092308;28;20245;-72
2021/01/14 02:14:18;;;;;;;1.00;0.57;;;2.40;48.50;;;;;;5092415;28;20197;-72
2021/01/14 02:16:45;;;;;;;1.33;0.50;;;2.40;48.50;;;;;;5073918;28;20200;-72
2021/01/14 02:19:26;;;;;;;1.20;0.70;;;2.40;48.30;;;;;;5073915;28;20173;-72
2021/01/14 02:21:57;;;;;;;1.73;0.70;;;2.30;48.30;;;;;;5074314;28;20559;-72
2021/01/14 02:24:26;;;;;;;1.00;0.70;;;2.40;47.90;;;;;;5092072;28;20197;-72
2021/01/14 02:26:53;;;;;;;1.45;0.70;;;2.30;48.00;;;;;;5092295;28;20180;-71
2021/01/14 02:29:19;;;;;;;1.10;0.60;;;2.20;48.00;;;;;;5073540;28;20330;-71
2021/01/14 02:31:45;;;;;;;1.50;0.80;;;2.20;48.10;;;;;;5091704;28;20295;-72
2021/01/14 02:34:11;;;;;;;1.00;0.50;;;2.30;48.20;;;;;;5091919;28;20296;-71
2021/01/14 02:36:36;;;;;;;1.10;0.67;;;2.30;48.40;;;;;;5091627;28;20256;-71
2021/01/14 02:39:02;;;;;;;1.40;0.90;;;2.30;47.70;;;;;;5091480;28;20272;-71
2021/01/14 02:41:28;;;;;;;0.90;0.50;;;2.20;48.30;;;;;;5091716;28;20169;-71
2021/01/14 02:43:53;;;;;;;1.20;0.60;;;2.20;48.20;;;;;;5091718;28;20264;-71
2021/01/14 02:46:22;;;;;;;1.10;0.60;;;2.20;48.40;;;;;;5091523;28;20288;-72
2021/01/14 02:49:08;;;;;;;1.23;0.73;;;2.20;48.00;;;;;;5091494;28;20256;-74
2021/01/14 02:51:48;;;;;;;1.00;0.55;;;2.20;48.50;;;;;;5091604;28;20232;-73
2021/01/14 02:54:16;;;;;;;0.90;0.50;;;2.20;48.00;;;;;;5091235;28;20256;-73
2021/01/14 02:56:42;;;;;;;1.15;0.55;;;2.20;48.10;;;;;;5091191;28;20176;-73
2021/01/14 02:59:09;;;;;;;1.10;0.50;;;2.20;48.10;;;;;;5091144;28;20181;-73
2021/01/14 03:01:35;;;;;;;1.00;0.50;;;2.20;48.10;;;;;;5073469;28;20181;-71
2021/01/14 03:04:01;;;;;;;1.00;0.50;;;2.30;48.00;;;;;;5091477;28;20541;-73
2021/01/14 03:06:27;;;;;;;1.40;0.80;;;2.30;48.00;;;;;;5073302;28;21032;-73
2021/01/14 03:08:52;;;;;;;1.50;0.70;;;2.30;47.90;;;;;;5091056;28;20445;-73
2021/01/14 03:11:28;;;;;;;1.10;0.60;;;2.30;47.50;;;;;;5091058;28;20287;-73
2021/01/14 03:13:54;;;;;;;1.48;0.70;;;2.30;47.90;;;;;;5091115;28;20596;-73
2021/01/14 03:16:20;;;;;;;4.82;0.80;;;2.30;47.80;;;;;;5090874;28;20197;-73
2021/01/14 03:18:57;;;;;;;1.00;0.60;;;2.30;47.70;;;;;;5090864;28;20197;-74
2021/01/14 03:21:24;;;;;;;1.20;0.70;;;2.30;47.30;;;;;;5091210;28;20442;-73
2021/01/14 03:23:51;;;;;;;1.10;0.60;;;2.30;47.30;;;;;;5091070;28;20181;-71
2021/01/14 03:26:17;;;;;;;1.25;0.75;;;2.30;47.10;;;;;;5112946;22;20248;-73
2021/01/14 03:28:43;;;;;;;1.30;0.60;;;2.30;47.50;;;;;;5090517;28;20173;-73
2021/01/14 03:31:10;;;;;;;1.43;0.87;;;2.30;47.30;;;;;;5090499;28;20216;-73
2021/01/14 03:33:36;;;;;;;1.20;0.70;;;2.30;47.20;;;;;;5090981;28;20416;-73
2021/01/14 03:36:04;;;;;;;1.60;0.70;;;2.30;47.20;;;;;;5090614;28;20554;-73
2021/01/14 03:38:31;;;;;;;2.50;0.77;;;2.30;47.30;;;;;;5090619;28;20169;-73
2021/01/14 03:40:58;;;;;;;2.05;0.80;;;2.30;47.40;;;;;;5072338;28;20174;-73
2021/01/14 03:43:24;;;;;;;1.55;0.70;;;2.30;47.20;;;;;;5094672;28;20199;-73
2021/01/14 03:45:49;;;;;;;1.10;0.53;;;2.40;48.00;;;;;;5111005;28;20708;-73
2021/01/14 03:48:15;;;;;;;1.20;0.60;;;2.40;47.10;;;;;;5110992;28;20218;-73
2021/01/14 03:50:41;;;;;;;1.10;0.60;;;2.40;47.00;;;;;;5092294;28;20193;-73
2021/01/14 03:53:07;;;;;;;1.48;0.63;;;2.40;47.30;;;;;;5110966;28;20176;-73
2021/01/14 03:55:32;;;;;;;1.67;0.77;;;2.40;47.40;;;;;;5111204;28;20188;-72
2021/01/14 03:57:58;;;;;;;1.37;0.80;;;2.40;47.30;;;;;;5111485;28;20177;-73
2021/01/14 04:00:24;;;;;;;1.57;0.73;;;2.40;47.30;;;;;;5110706;28;20649;-73
2021/01/14 04:02:49;;;;;;;1.03;0.50;;;2.40;47.40;;;;;;5110892;28;20172;-73
2021/01/14 04:05:15;;;;;;;1.80;0.80;;;2.40;47.50;;;;;;5110905;28;20196;-73
2021/01/14 04:07:42;;;;;;;1.60;0.80;;;2.40;47.50;;;;;;5111954;28;20176;-73
2021/01/14 04:10:08;;;;;;;1.30;0.90;;;2.40;47.60;;;;;;5114445;28;20211;-73
2021/01/14 04:12:34;;;;;;;12.83;1.10;;;2.40;47.80;;;;;;5114787;28;20516;-73
2021/01/14 04:14:59;;;;;;;1.50;0.93;;;2.30;47.70;;;;;;5096690;28;20654;-73
2021/01/14 04:17:26;;;;;;;1.97;1.17;;;2.30;47.70;;;;;;5114390;28;20255;-73
2021/01/14 04:19:51;;;;;;;1.35;0.57;;;2.30;47.60;;;;;;5114337;28;20160;-73
2021/01/14 04:22:17;;;;;;;2.20;0.93;;;2.30;47.80;;;;;;5114513;28;20173;-73
2021/01/14 04:24:43;;;;;;;1.27;0.70;;;2.20;48.00;;;;;;5114273;28;20259;-73
2021/01/14 04:27:09;;;;;;;1.10;0.60;;;2.20;48.30;;;;;;5114538;28;20203;-73
2021/01/14 04:29:34;;;;;;;1.53;0.80;;;2.10;48.60;;;;;;5114242;28;20221;-73
2021/01/14 04:32:00;;;;;;;1.20;0.70;;;2.10;49.20;;;;;;5114370;28;20200;-73
2021/01/14 04:34:26;;;;;;;1.20;0.90;;;2.10;49.20;;;;;;5114115;28;20649;-73
2021/01/14 04:37:01;;;;;;;1.57;0.77;;;2.20;49.10;;;;;;5114259;28;20203;-73
2021/01/14 04:39:28;;;;;;;2.97;1.10;;;2.10;49.10;;;;;;5095611;28;20226;-73
2021/01/14 04:41:56;;;;;;;1.40;0.88;;;2.10;49.70;;;;;;5114162;28;20271;-73
2021/01/14 04:44:22;;;;;;;1.33;0.90;;;2.10;49.60;;;;;;5114082;28;20183;-73
2021/01/14 04:46:49;;;;;;;1.60;0.85;;;2.10;49.60;;;;;;5113859;28;20203;-73
2021/01/14 04:49:18;;;;;;;3.05;0.77;;;2.00;50.00;;;;;;5113677;28;20173;-73
2021/01/14 04:51:48;;;;;;;2.17;0.88;;;2.00;50.20;;;;;;5113885;28;20572;-73
2021/01/14 04:54:22;;;;;;;1.45;1.00;;;2.10;50.40;;;;;;5095610;28;20169;-72
2021/01/14 04:56:54;;;;;;;1.30;0.75;;;2.10;50.30;;;;;;5113668;28;20583;-73
2021/01/14 04:59:24;;;;;;;2.45;0.90;;;2.10;50.30;;;;;;5113578;28;20169;-73
2021/01/14 05:01:53;;;;;;;2.15;0.70;;;2.20;50.00;;;;;;5113700;28;20579;-72
2021/01/14 05:04:21;;;;;;;1.50;0.85;;;2.10;50.00;;;;;;5113653;28;20183;-73
2021/01/14 05:06:55;;;;;;;1.67;0.70;;;2.10;50.10;;;;;;5113509;28;20196;-73
2021/01/14 05:09:24;;;;;;;1.00;0.60;;;2.20;50.20;;;;;;5095119;28;20172;-72
2021/01/14 05:11:55;;;;;;;2.60;1.10;;;2.20;50.00;;;;;;5095161;28;20218;-73
2021/01/14 05:14:21;;;;;;;1.20;0.70;;;2.30;50.00;;;;;;5113505;28;20211;-73
2021/01/14 05:16:48;;;;;;;1.43;0.63;;;2.30;49.30;;;;;;5113422;28;20188;-73
2021/01/14 05:19:13;;;;;;;1.55;0.93;;;2.30;49.30;;;;;;5093594;28;20822;-73
2021/01/14 05:21:40;;;;;;;1.00;0.80;;;2.30;49.40;;;;;;5095094;28;20180;-73
2021/01/14 05:24:14;;;;;;;2.03;0.90;;;2.30;49.40;;;;;;5113244;28;20249;-73
2021/01/14 05:26:43;;;;;;;2.22;1.17;;;2.20;49.50;;;;;;5112970;28;20213;-73
2021/01/14 05:29:13;;;;;;;2.13;1.13;;;2.30;49.60;;;;;;5112863;28;20172;-73
2021/01/14 05:31:38;;;;;;;1.23;0.95;;;2.20;49.50;;;;;;5113021;28;20212;-73
2021/01/14 05:34:04;;;;;;;1.60;0.90;;;2.20;49.80;;;;;;5113098;28;20255;-73
2021/01/14 05:36:54;;;;;;;1.37;0.93;;;2.20;49.90;;;;;;5113074;28;20193;-73
2021/01/14 05:39:21;;;;;;;2.20;1.20;;;2.20;49.60;;;;;;5112802;28;20195;-70
2021/01/14 05:41:48;;;;;;;1.65;0.95;;;2.20;49.90;;;;;;5094568;28;20181;-71
2021/01/14 05:44:14;;;;;;;1.83;1.00;;;2.20;49.80;;;;;;5089608;28;20199;-71
2021/01/14 05:46:39;;;;;;;2.23;1.23;;;2.10;50.20;;;;;;5077146;28;20201;-71
2021/01/14 05:49:09;;;;;;;2.53;1.80;;;2.20;49.90;;;;;;5091856;28;20419;-71
2021/01/14 05:51:35;;;;;;;2.67;1.40;;;2.20;49.90;;;;;;5092425;28;20189;-71
2021/01/14 05:54:02;;;;;;;2.28;1.27;;;2.20;50.10;;;;;;5092345;28;20174;-72
2021/01/14 05:56:47;;;;;;;4.50;1.27;;;2.20;50.20;;;;;;5092199;28;20189;-72
2021/01/14 05:59:14;;;;;;;1.30;0.82;;;2.10;50.00;;;;;;5092073;28;20238;-72
2021/01/14 06:01:52;;;;;;;2.17;1.20;;;2.10;50.10;;;;;;5092270;28;20181;-72
2021/01/14 06:04:20;;;;;;;1.70;1.40;;;2.10;50.00;;;;;;5073834;28;20181;-72
2021/01/14 06:06:47;;;;;;;1.85;1.45;;;2.10;50.00;;;;;;5092159;28;20197;-72
2021/01/14 06:09:14;;;;;;;2.78;1.80;;;2.10;50.00;;;;;;5090523;28;20182;-72
2021/01/14 06:11:41;;;;;;;2.47;1.73;;;2.00;50.00;;;;;;5091850;28;20615;-72
2021/01/14 06:14:24;;;;;;;3.80;1.85;;;2.10;50.30;;;;;;5091943;28;20244;-72
2021/01/14 06:16:51;;;;;;;3.65;1.83;;;2.00;50.00;;;;;;5093723;28;20211;-72
2021/01/14 06:19:17;;;;;;;2.15;1.88;;;2.00;50.00;;;;;;5111979;28;20202;-72
2021/01/14 06:21:44;;;;;;;3.30;2.00;;;2.00;50.40;;;;;;5112360;28;20176;-72
2021/01/14 06:24:26;;;;;;;3.05;2.65;;;2.00;50.20;;;;;;5112206;28;20222;-72
2021/01/14 06:27:05;;;;;;;2.38;2.17;;;2.00;50.20;;;;;;5111776;28;20631;-72
2021/01/14 06:29:41;;;;;;;3.38;2.38;;;2.10;50.30;;;;;;5093530;28;20179;-72
2021/01/14 06:32:15;;;;;;;1.70;1.60;;;2.00;50.10;;;;;;5111838;28;20203;-73
2021/01/14 06:34:49;;;;;;;2.25;2.05;;;1.90;50.40;;;;;;5111841;28;20175;-73
2021/01/14 06:37:23;;;;;;;2.00;1.55;;;1.90;50.70;;;;;;5111872;28;20161;-71
2021/01/14 06:39:51;;;;;;;2.05;1.85;;;1.90;51.10;;;;;;5111399;28;20255;-71
2021/01/14 06:42:32;;;;;;;2.40;2.20;;;1.90;50.70;;;;;;5111746;28;20164;-72
2021/01/14 06:45:06;;;;;;;2.70;2.15;;;1.80;51.10;;;;;;5111668;28;20188;-72
2021/01/14 06:47:41;;;;;;;2.58;2.38;;;1.70;51.40;;;;;;5111708;28;20629;-72
2021/01/14 06:50:06;;;;;;;2.50;2.25;;;1.70;52.00;;;;;;5111442;28;20256;-72
2021/01/14 06:52:40;;;;;;;2.40;2.20;;;1.70;52.00;;;;;;5093782;28;20200;-72
2021/01/14 06:55:07;;;;;;;2.50;2.17;;;1.80;52.20;;;;;;5111876;28;20201;-72
2021/01/14 06:57:36;;;;;;;3.00;2.67;;;1.80;52.10;;;;;;5111549;28;20184;-73
2021/01/14 07:00:05;;;;;;;3.45;3.15;;;1.90;52.00;;;;;;5116413;28;20168;-73
2021/01/14 07:02:34;;;;;;;3.90;3.60;;;1.90;51.90;;;;;;5113807;28;20201;-72
2021/01/14 07:05:07;;;;;;;4.32;3.92;;;1.90;51.50;;;;;;5111850;28;20196;-72
2021/01/14 07:07:52;;;;;;;4.25;3.17;;;1.90;51.40;;;;;;5098143;28;20650;-73
2021/01/14 07:10:21;;;;;;;5.97;3.88;;;1.90;51.40;;;;;;5092931;28;20588;-73
2021/01/14 07:12:47;;;;;;;8.32;5.00;;;1.90;51.10;;;;;;5092394;28;20206;-74
2021/01/14 07:15:14;;;;;;;5.23;4.40;;;1.90;50.80;;;;;;5114444;28;20624;-72
2021/01/14 07:17:44;;;;;;;4.68;4.20;;;1.90;51.10;;;;;;5114090;28;20177;-73
2021/01/14 07:20:15;;;;;;;7.88;4.65;;;1.90;50.80;;;;;;5110512;28;20188;-73
2021/01/14 07:22:50;;;;;;;4.88;4.47;;;1.90;50.50;;;;;;5109640;28;20231;-74
2021/01/14 07:25:17;;;;;;;4.88;3.88;;;1.90;50.10;;;;;;5109116;28;20575;-72
2021/01/14 07:27:44;;;;;;;3.25;2.80;;;1.90;50.10;;;;;;5074123;28;20195;-72
2021/01/14 07:30:17;;;;;;;4.70;4.30;;;1.90;48.90;;;;;;5088542;28;20330;-74
2021/01/14 07:32:57;;;;;;;3.88;3.47;;;1.80;48.80;;;;;;5087160;28;20173;-73
2021/01/14 07:35:45;;;;;;;4.80;2.67;;;1.80;49.00;;;;;;5094677;28;20192;-73
2021/01/14 07:38:16;;;;;;;7.50;4.20;;;1.80;47.70;;;;;;5083307;28;20231;-72
2021/01/14 07:40:43;;;;;;;2.90;2.35;;;1.80;46.80;;;;;;5102115;28;20191;-73
2021/01/14 07:43:13;;;;;;;3.45;2.63;;;1.80;45.50;;;;;;5090516;28;20184;-74
2021/01/14 07:45:41;;;;;;;4.72;2.90;;;1.80;45.50;;;;;;5110792;28;20189;-73
2021/01/14 07:48:16;;;;;;;9.13;3.80;;;1.80;44.50;;;;;;5111171;28;20202;-73
2021/01/14 07:50:51;;;;;;;8.65;7.15;;;1.90;44.40;;;;;;5111001;28;20231;-73
2021/01/14 07:53:18;;;;;;;13.93;11.95;;;1.90;42.40;;;;;;5091084;28;20226;-74
2021/01/14 07:55:44;;;;;;;2.58;2.10;;;1.90;41.10;;;;;;5072374;28;20291;-75
2021/01/14 07:58:21;;;;;;;3.20;2.37;;;1.90;41.00;;;;;;5082138;28;20263;-72
2021/01/14 08:01:09;;;;;;;2.20;1.75;;;2.00;40.10;;;;;;5110086;28;20544;-72
2021/01/14 08:03:38;;;;;;;4.90;2.10;;;2.00;39.30;;;;;;5110733;28;20652;-72
2021/01/14 08:06:26;;;;;;;2.67;2.42;;;2.00;39.60;;;;;;5085269;28;20285;-72
2021/01/14 08:08:58;;;;;;;5.10;3.08;;;2.00;39.90;;;;;;5103396;28;20192;-71
2021/01/14 08:11:24;;;;;;;3.90;2.05;;;2.00;39.70;;;;;;5110130;28;20196;-72
2021/01/14 08:14:16;;;;;;;2.40;1.70;;;2.00;39.70;;;;;;5091256;28;20560;-71
2021/01/14 08:16:46;;;;;;;2.92;2.10;;;2.00;39.80;;;;;;5091846;28;20193;-71
2021/01/14 08:19:33;;;;;;;6.68;3.33;;;1.90;40.60;;;;;;5092211;28;20251;-71
2021/01/14 08:21:59;;;;;;;2.88;2.58;;;1.90;40.40;;;;;;5073731;28;20208;-71
2021/01/14 08:24:53;;;;;;;3.27;2.57;;;2.00;39.80;;;;;;5092744;28;20677;-71
2021/01/14 08:27:35;;;;;;;3.78;2.55;;;2.00;39.90;;;;;;5075977;28;20592;-71
2021/01/14 08:30:14;;;;;;;2.00;1.80;;;2.00;40.20;;;;;;5093930;28;20179;-74
2021/01/14 08:32:47;;;;;;;3.33;2.78;;;2.00;39.80;;;;;;5094448;28;20253;-74
2021/01/14 08:35:15;;;;;;;4.15;3.35;;;2.00;40.70;;;;;;5094207;28;20272;-71
2021/01/14 08:38:02;;;;;;;7.28;2.72;;;2.10;39.20;;;;;;5094208;28;20703;-71
2021/01/14 08:40:33;;;;;;;3.10;2.10;;;2.00;38.80;;;;;;5112402;28;20187;-71
2021/01/14 08:43:01;;;;;;;2.10;1.50;;;1.90;37.70;;;;;;5116291;28;20252;-73
2021/01/14 08:45:28;;;;;;;4.00;2.72;;;1.80;37.00;;;;;;5098062;28;20196;-73
2021/01/14 08:48:05;;;;;;;3.78;1.90;;;1.90;37.40;;;;;;5116201;28;20543;-73
2021/01/14 08:50:44;;;;;;;1.95;1.58;;;2.00;36.90;;;;;;5115999;28;20192;-74
2021/01/14 08:53:19;;;;;;;15.98;10.63;;;2.00;36.70;;;;;;5116016;28;20222;-73
2021/01/14 08:55:54;;;;;;;2.60;1.63;;;2.00;35.70;;;;;;5116165;28;20192;-73
2021/01/14 08:58:20;;;;;;;3.03;1.58;;;2.00;35.60;;;;;;5096381;28;20180;-74
2021/01/14 09:00:47;;;;;;;3.13;1.70;;;2.10;36.20;;;;;;5112404;28;20558;-73
2021/01/14 09:03:13;;;;;;;2.67;2.00;;;2.10;37.20;;;;;;5112608;28;20181;-74
2021/01/14 09:05:46;;;;;;;2.00;1.60;;;2.10;36.30;;;;;;5093027;28;20261;-73
2021/01/14 09:08:15;;;;;;;3.95;3.53;;;2.10;35.70;;;;;;5111136;28;20193;-74
2021/01/14 09:10:40;;;;;;;2.08;1.85;;;2.20;35.20;;;;;;5101324;28;20486;-73
2021/01/14 09:13:11;;;;;;;1.90;1.40;;;2.30;33.30;;;;;;5075351;28;20176;-73
2021/01/14 09:15:37;;;;;;;1.85;1.52;;;2.30;32.00;;;;;;5093157;28;20197;-73
2021/01/14 09:18:03;;;;;;;2.97;1.57;;;2.30;30.70;;;;;;5073058;28;20234;-73
2021/01/14 09:20:32;;;;;;;3.20;1.98;;;2.20;31.50;;;;;;5100033;28;20191;-73
2021/01/14 09:23:36;;;;;;;2.20;1.80;;;2.20;33.30;;;;;;5113670;28;20193;-74
2021/01/14 09:26:04;;;;;;;5.63;2.28;;;2.30;34.50;;;;;;5121316;22;20236;-73
2021/01/14 09:28:31;;;;;;;1.90;1.60;;;2.40;33.60;;;;;;5054303;28;20232;-72
2021/01/14 09:31:00;;;;;;;3.63;1.90;;;2.40;31.60;;;;;;5082945;28;20208;-74
2021/01/14 09:33:28;;;;;;;2.92;2.63;;;2.40;32.30;;;;;;5090842;28;20618;-70
2021/01/14 09:36:00;;;;;;;3.83;2.70;;;2.40;33.00;;;;;;5080184;28;20201;-72
2021/01/14 09:38:26;;;;;;;3.85;3.30;;;2.50;34.20;;;;;;5092256;28;20169;-71
2021/01/14 09:40:56;;;;;;;6.70;3.95;;;2.50;35.20;;;;;;5095816;28;20199;-71
2021/01/14 09:43:25;;;;;;;6.25;4.90;;;2.60;36.10;;;;;;5078316;28;20181;-72
2021/01/14 09:45:52;;;;;;;5.07;4.10;;;2.70;35.50;;;;;;5071590;28;20201;-73
2021/01/14 09:48:21;;;;;;;6.00;3.10;;;2.80;34.70;;;;;;5074462;28;20484;-74
2021/01/14 09:50:47;;;;;;;2.40;2.20;;;2.80;34.10;;;;;;5072507;28;20292;-73
2021/01/14 09:53:13;;;;;;;2.95;2.58;;;2.90;30.70;;;;;;5073410;28;20631;-73
2021/01/14 09:55:40;;;;;;;4.03;3.30;;;2.80;29.80;;;;;;5073208;28;20228;-73
2021/01/14 09:58:10;;;;;;;3.45;2.42;;;2.70;30.20;;;;;;5072999;28;20405;-74
2021/01/14 10:00:38;;;;;;;3.72;2.05;;;2.70;30.20;;;;;;5072446;28;20174;-72
2021/01/14 10:03:08;;;;;;;2.55;2.00;;;2.60;31.00;;;;;;5071697;28;20209;-72
2021/01/14 10:05:35;;;;;;;3.70;2.85;;;2.60;31.40;;;;;;5071452;28;20323;-73
2021/01/14 10:08:10;;;;;;;2.40;2.10;;;2.70;31.50;;;;;;5056564;28;20182;-73
2021/01/14 10:10:35;;;;;;;4.88;3.97;;;2.70;31.60;;;;;;5073850;28;20198;-73
2021/01/14 10:13:01;;;;;;;4.07;3.67;;;2.80;31.10;;;;;;5074944;28;20166;-72
2021/01/14 10:15:26;;;;;;;4.80;3.47;;;2.90;31.20;;;;;;5073868;28;20237;-73
2021/01/14 10:17:52;;;;;;;19.73;17.47;;;2.90;30.10;;;;;;5056554;28;20635;-73
2021/01/14 10:20:18;;;;;;;11.00;10.00;;;2.90;29.60;;;;;;5075753;28;20231;-73
2021/01/14 10:22:53;;;;;;;4.70;3.87;;;2.80;29.70;;;;;;5075231;28;20189;-73
2021/01/14 10:25:20;;;;;;;4.47;3.38;;;2.80;30.10;;;;;;5077350;28;20447;-71
2021/01/14 10:28:03;;;;;;;2.92;2.22;;;2.80;30.00;;;;;;5080117;28;20178;-72
2021/01/14 10:30:30;;;;;;;4.05;2.47;;;2.80;38.30;;;;;;5078229;28;20194;-70
2021/01/14 10:33:03;;;;;;;3.90;3.15;;;2.70;42.00;;;;;;5078021;28;20171;-71
2021/01/14 10:35:30;;;;;;;1.92;1.52;;;2.60;41.30;;;;;;5077412;28;20671;-70
2021/01/14 10:38:05;;;;;;;2.28;1.95;;;2.60;41.00;;;;;;5077538;28;20583;-72
2021/01/14 10:40:40;;;;;;;6.25;2.22;;;2.50;32.80;;;;;;5057457;28;20182;-73
2021/01/14 10:43:06;;;;;;;2.45;2.05;;;;;;;;;;5074294;28;20634;-73
2021/01/14 10:45:35;;;;;;;2.15;1.70;;;2.20;32.50;;;;;;5076372;28;20225;-72
2021/01/14 10:48:12;;;;;;;3.67;2.83;;;2.10;34.40;;;;;;5074832;28;20253;-73
2021/01/14 10:50:46;;;;;;;3.22;1.67;;;2.00;35.60;;;;;;5057045;28;20220;-74
2021/01/14 10:53:12;;;;;;;5.93;3.00;;;1.90;36.40;;;;;;5076099;28;20177;-72
2021/01/14 10:55:38;;;;;;;2.53;2.30;;;1.90;37.00;;;;;;5075317;28;20193;-74
2021/01/14 10:58:05;;;;;;;6.15;2.30;;;1.90;36.70;;;;;;5075538;28;20178;-73
2021/01/14 11:00:39;;;;;;;5.22;2.72;;;1.90;36.60;;;;;;5054780;28;20188;-73
2021/01/14 11:03:14;;;;;;;2.75;1.80;;;2.00;35.70;;;;;;5072668;28;20311;-72
2021/01/14 11:05:43;;;;;;;3.63;2.13;;;2.00;35.00;;;;;;5071746;28;20647;-68
2021/01/14 11:08:12;;;;;;;2.72;1.85;;;2.00;34.80;;;;;;5071867;28;20189;-71
2021/01/14 11:10:38;;;;;;;1.63;1.35;;;2.00;35.60;;;;;;5072107;28;20212;-72
2021/01/14 11:13:09;;;;;;;2.40;1.73;;;2.00;34.50;;;;;;5071486;28;20178;-73
2021/01/14 11:15:34;;;;;;;1.95;1.40;;;1.90;35.20;;;;;;5071678;28;20190;-68
2021/01/14 11:18:01;;;;;;;2.83;1.83;;;2.00;34.60;;;;;;5071919;28;20243;-72
2021/01/14 11:20:27;;;;;;;2.42;1.83;;;1.90;33.50;;;;;;5070011;28;20231;-72
2021/01/14 11:22:53;;;;;;;1.60;1.40;;;1.80;34.60;;;;;;5070813;28;20185;-70
2021/01/14 11:25:18;;;;;;;2.23;1.50;;;1.80;35.20;;;;;;5071185;28;20548;-72
2021/01/14 11:27:44;;;;;;;2.23;1.50;;;1.80;35.40;;;;;;5071320;28;20268;-72
2021/01/14 11:30:10;;;;;;;1.30;0.93;;;1.90;35.30;;;;;;5071684;28;20214;-70
2021/01/14 11:32:35;;;;;;;2.40;1.80;;;2.00;34.80;;;;;;5076446;28;20705;-72
2021/01/14 11:35:01;;;;;;;4.80;1.23;;;2.00;34.90;;;;;;5090125;28;20205;-72
2021/01/14 11:37:27;;;;;;;2.17;1.20;;;2.10;33.90;;;;;;5089718;28;20192;-71
2021/01/14 11:39:52;;;;;;;1.37;1.03;;;2.20;34.30;;;;;;5088678;28;20177;-73
2021/01/14 11:42:18;;;;;;;1.77;1.40;;;2.30;32.90;;;;;;5089096;28;20193;-73
2021/01/14 11:44:43;;;;;;;1.97;1.20;;;2.30;33.20;;;;;;5071188;28;20182;-73
2021/01/14 11:47:09;;;;;;;2.13;1.77;;;2.30;32.60;;;;;;5069155;28;20258;-71
2021/01/14 11:49:34;;;;;;;2.27;1.40;;;2.30;31.50;;;;;;5071970;28;20174;-73
2021/01/14 11:52:00;;;;;;;2.30;1.30;;;2.30;32.20;;;;;;5072723;28;20213;-73
2021/01/14 11:54:25;;;;;;;3.10;1.50;;;2.40;32.30;;;;;;5055949;28;20188;-73
2021/01/14 11:56:55;;;;;;;3.23;2.93;;;;;;;;;;5063977;28;20236;-72
2021/01/14 11:59:21;;;;;;;5.18;2.55;;;2.30;31.00;;;;;;5041497;28;20186;-71
2021/01/14 12:01:46;;;;;;;7.83;4.70;;;2.30;31.80;;;;;;5045585;28;20197;-72
2021/01/14 12:04:12;;;;;;;5.03;3.23;;;2.30;30.90;;;;;;5033503;28;20214;-72
2021/01/14 12:06:37;;;;;;;2.37;2.17;;;2.20;31.60;;;;;;5057379;28;20229;-72
2021/01/14 12:09:03;;;;;;;1.83;1.57;;;2.20;31.00;;;;;;5071872;28;20529;-71
2021/01/14 12:11:28;;;;;;;2.77;2.57;;;2.20;31.80;;;;;;5072443;28;20245;-70
2021/01/14 12:13:54;;;;;;;2.87;2.00;;;2.40;32.80;;;;;;5061950;28;20249;-74
2021/01/14 12:16:20;;;;;;;2.00;1.47;;;2.40;31.60;;;;;;5057784;28;20666;-71
2021/01/14 12:18:45;;;;;;;4.60;2.17;;;2.40;31.00;;;;;;5075214;28;20178;-71
2021/01/14 12:21:17;;;;;;;2.17;1.90;;;2.40;31.30;;;;;;5058007;28;20178;-72
2021/01/14 12:23:46;;;;;;;2.55;2.17;;;2.40;30.90;;;;;;5075987;28;20630;-73
2021/01/14 12:26:12;;;;;;;1.92;1.65;;;2.40;31.00;;;;;;5076300;28;20217;-74
2021/01/14 12:28:38;;;;;;;2.60;2.10;;;2.30;31.60;;;;;;5076841;28;20189;-73
2021/01/14 12:31:03;;;;;;;1.83;1.30;;;2.40;31.60;;;;;;5062527;28;20208;-73
2021/01/14 12:33:29;;;;;;;2.10;1.90;;;2.40;30.80;;;;;;5063468;28;20170;-72
2021/01/14 12:35:54;;;;;;;1.77;1.50;;;2.50;30.90;;;;;;5081290;28;20195;-73
2021/01/14 12:38:20;;;;;;;3.30;2.10;;;2.60;31.00;;;;;;5082165;28;20193;-71
2021/01/14 12:40:45;;;;;;;4.83;2.43;;;2.70;31.10;;;;;;5062835;28;20241;-73
2021/01/14 12:43:11;;;;;;;2.87;2.20;;;2.70;30.30;;;;;;5063988;28;20231;-73
2021/01/14 12:45:36;;;;;;;2.47;1.90;;;2.70;30.40;;;;;;5078627;28;20214;-73
2021/01/14 12:48:02;;;;;;;2.83;2.60;;;2.80;30.20;;;;;;5061088;28;20201;-72
2021/01/14 12:50:27;;;;;;;3.83;1.63;;;2.80;30.10;;;;;;5080112;28;20209;-74
2021/01/14 12:52:53;;;;;;;2.03;1.50;;;2.80;30.40;;;;;;5060453;28;20186;-74
2021/01/14 12:55:19;;;;;;;4.30;1.50;;;2.80;29.70;;;;;;5063883;28;20206;-74
2021/01/14 12:57:44;;;;;;;2.10;1.90;;;2.80;29.60;;;;;;5081986;28;20673;-73
2021/01/14 13:00:10;;;;;;;2.50;2.03;;;2.90;30.40;;;;;;5080212;28;20190;-74
2021/01/14 13:02:36;;;;;;;2.58;2.38;;;3.00;29.90;;;;;;5065272;28;20182;-72
2021/01/14 13:05:02;;;;;;;2.70;1.90;;;3.00;29.50;;;;;;5081392;28;20620;-75
2021/01/14 13:07:27;;;;;;;1.97;1.77;;;2.90;29.20;;;;;;5080844;28;20202;-74
2021/01/14 13:09:53;;;;;;;1.80;1.60;;;2.90;28.90;;;;;;5061977;28;20416;-74